KAGS/AGS METAR and TAF weather

Enter ICAO airport designator
Station Type Date Time Source
KAGS METAR 2019/10/20 18:53 UTC NOAA

KAGS 201853Z 26008KT 10SM BKN021 23/16 A2986 RMK AO2 SLP109 T02330161


Station Type Date Time Source
KAGS Decoded METAR 2019/10/20 18:53 UTC NOAA

AUGUSTA BUSH FIELD, GA, United States (KAGS) 33-22N 081-58W 44M
Oct 20, 2019 - 02:53 PM EDT / 2019.10.20 1853 UTC
Wind: from the W (260 degrees) at 9 MPH (8 KT):0
Visibility: 10 mile(s):0
Sky conditions: mostly cloudy
Temperature: 73.9 F (23.3 C)
Dew Point: 61.0 F (16.1 C)
Relative Humidity: 63%
Pressure (altimeter): 29.86 in. Hg (1011 hPa)
ob: KAGS 201853Z 26008KT 10SM BKN021 23/16 A2986 RMK AO2 SLP109 T02330161
cycle: 19

Station Type Date Time Source
KAGS TAF 2019/10/20 19:36 UTC NOAA

TAF
AMD KAGS 201834Z 2019/2118 30010G15KT P6SM SCT020
TEMPO 2019/2021 BKN020
FM210000 VRB03KT P6SM SKC
FM210600 VRB03KT 1SM BR BKN012
FM211500 13005KT P6SM SCT025

Example: see airport list